Airport Information

KDLS - Columbia Gorge Regional - The Dalles Municipal Airport

KDLS 160753Z AUTO 12005KT 10SM OVC021 01/M03 A3001 RMK AO2 SLP166 T00061033 400280006


  • General Information

  • Coordinates: N 45°37'6"/ W 121°10'2"
  • Location: N/A
  • Surveyed Elevation: 247 MSL

Operations

Flow Name Active Runways Conditions

Green background denotes normal operations.


Common Frequencies

Callsign Frequency Position Name

More at the Document Center


Charts